Oliver Hazard Perry — KOHZ — position and weather

sailwx.info

Track history (hours):
 
Tides and Currents Weather Stations Pressure Air Temp Water Temp Dewpoint Dewpoint Depression Visibility Wind Speed Wind Dir Waves Ship Positions

Oliver Hazard Perry

Owner: Oliver Hazard Perry Rhode Island, Newport, RI. More information available from US FCC via Universal Licensing System and Coast Guard Vessel Documentation Center.

Last reported at 2018-Apr-05 22:00 UTC. Time now 2018-Apr-27 08:47 UTC.
Position N 29°19' W 094°47'.
Warning: this ship's position is 21 days out of date.

; draft 4 m.

Type: Sailing vessel. MMSI: 367658110.

Date/timePositionNaut miles runAvg speedWind from/ knotsBaromVisibWave heightAir tempDewpointWater temp
2018-Apr-05 22:00N 29°19' W 094°47'2 3.2
2018-Apr-05 21:29N 29°20' W 094°46'4 7.2
2018-Apr-05 20:58N 29°20' W 094°42'1 2.7
2018-Apr-05 20:28N 29°19' W 094°42'2 4.0
2018-Apr-05 19:58N 29°18' W 094°44'5 4.2
2018-Apr-05 18:51N 29°15' W 094°48'3 7.6
2018-Apr-05 18:29N 29°16' W 094°46'3 5.9
2018-Apr-05 17:58N 29°18' W 094°43'1 2.4
2018-Apr-05 17:29N 29°19' W 094°42'2 3.4
2018-Apr-05 16:59N 29°20' W 094°42'2 4.0
2018-Apr-05 16:29N 29°20' W 094°44'2 3.8
2018-Apr-05 15:59N 29°20' W 094°47'2 2.2
2018-Apr-05 15:15N 29°19' W 094°48'0 0.0
2018-Apr-05 15:00N 29°19' W 094°48'0 0.0
2018-Apr-05 14:30N 29°19' W 094°48'0 0.0
2018-Apr-05 13:57N 29°19' W 094°48'0 0.0
2018-Apr-05 13:27N 29°19' W 094°48'0 0.0
2018-Apr-05 13:01N 29°19' W 094°48'0 0.0
2018-Apr-05 12:27N 29°19' W 094°48'0 0.0
2018-Apr-05 11:48N 29°19' W 094°48'0 0.0
2018-Apr-05 11:21N 29°19' W 094°48'0 0.0
2018-Apr-05 10:57N 29°19' W 094°48'0 0.0
2018-Apr-05 10:30N 29°19' W 094°48'0 0.0
2018-Apr-05 10:00N 29°19' W 094°48'0 0.0
2018-Apr-05 09:30N 29°19' W 094°48'0 0.0
2018-Apr-05 09:01N 29°19' W 094°48'0 0.0
2018-Apr-05 08:30N 29°19' W 094°48'0 0.0
2018-Apr-05 08:00N 29°19' W 094°48'0 0.0
2018-Apr-05 07:21N 29°19' W 094°48'0 0.0
2018-Apr-05 06:54N 29°19' W 094°48'0 0.0
2018-Apr-05 06:30N 29°19' W 094°48'0 0.0
2018-Apr-05 05:54N 29°19' W 094°48'0 0.0
2018-Apr-05 05:28N 29°19' W 094°48'0 0.0
2018-Apr-05 04:57N 29°19' W 094°48'0 0.0
2018-Apr-05 03:54N 29°19' W 094°48'0 0.0
2018-Apr-05 03:21N 29°19' W 094°48'0 0.0
2018-Apr-05 02:09N 29°19' W 094°48'0 0.0
2018-Apr-05 01:48N 29°19' W 094°48'0 0.0
2018-Apr-05 01:30N 29°19' W 094°48'0 0.0
2018-Apr-05 01:00N 29°19' W 094°48'0 0.0
2018-Apr-05 00:21N 29°19' W 094°48'0 0.0
2018-Apr-05 00:00N 29°19' W 094°48'0 0.0
2018-Apr-04 23:30N 29°19' W 094°48'0 0.0
2018-Apr-04 22:57N 29°19' W 094°48'0 0.0
2018-Apr-04 22:30N 29°19' W 094°48'0 0.0
2018-Apr-04 22:00N 29°19' W 094°48'0 0.0
2018-Apr-04 21:30N 29°19' W 094°48'0 0.0
2018-Apr-04 20:57N 29°19' W 094°48'0 0.0
2018-Apr-04 20:30N 29°19' W 094°48'1 2.3
2018-Apr-04 20:00N 29°20' W 094°47'2 4.0
2018-Apr-04 19:24N 29°21' W 094°45'0 0.0
2018-Apr-04 18:47N 29°21' W 094°45'0 0.0
2018-Apr-04 18:23N 29°21' W 094°45'0 0.0
2018-Apr-04 17:53N 29°21' W 094°45'0 0.0
2018-Apr-04 17:20N 29°21' W 094°45'0 0.0
2018-Apr-04 16:47N 29°21' W 094°45'0 0.0
2018-Apr-04 16:29N 29°21' W 094°45'0 0.0
2018-Apr-04 15:56N 29°21' W 094°45'0 0.0
2018-Apr-04 15:29N 29°21' W 094°45'0 0.0
2018-Apr-04 14:56N 29°21' W 094°45'0 0.0
2018-Apr-04 14:26N 29°21' W 094°45'0 0.0
2018-Apr-04 13:59N 29°21' W 094°45'0 0.0
2018-Apr-04 13:29N 29°21' W 094°45'0 0.0
2018-Apr-04 12:59N 29°21' W 094°45'0 0.0
2018-Apr-04 12:26N 29°21' W 094°45'0 0.0
2018-Apr-04 11:44N 29°21' W 094°45'0 0.0
2018-Apr-04 11:29N 29°21' W 094°45'0 0.0
2018-Apr-04 10:59N 29°21' W 094°45'0 0.0
2018-Apr-04 10:29N 29°21' W 094°45'0 0.0
2018-Apr-04 09:59N 29°21' W 094°45'0 0.0
2018-Apr-04 09:23N 29°21' W 094°45'0 0.0
2018-Apr-04 08:59N 29°21' W 094°45'0 0.1
2018-Apr-04 08:17N 29°21' W 094°45'0 0.0
2018-Apr-04 07:59N 29°21' W 094°45'0 0.0
2018-Apr-04 07:23N 29°21' W 094°45'0 0.0
2018-Apr-04 06:04N 29°21' W 094°45'0 0.3
2018-Apr-04 05:58N 29°21' W 094°45'0 0.1
2018-Apr-04 05:28N 29°21' W 094°45'0 0.0
2018-Apr-04 04:46N 29°21' W 094°45'0 0.0
2018-Apr-04 04:28N 29°21' W 094°45'0 0.0
2018-Apr-04 03:55N 29°21' W 094°45'0 0.0
2018-Apr-04 03:28N 29°21' W 094°45'0 0.0
2018-Apr-04 02:58N 29°21' W 094°45'0 0.0
2018-Apr-04 02:19N 29°21' W 094°45'0 0.0
2018-Apr-04 01:49N 29°21' W 094°45'0 0.0
2018-Apr-04 01:25N 29°21' W 094°45'0 0.0
2018-Apr-04 00:58N 29°21' W 094°45'0 0.0
2018-Apr-04 00:19N 29°21' W 094°45'0 0.0
2018-Apr-03 23:58N 29°21' W 094°45'0 0.0
2018-Apr-03 23:28N 29°21' W 094°45'0 0.1
2018-Apr-03 22:58N 29°21' W 094°45'0 0.0
2018-Apr-03 22:19N 29°21' W 094°45'0 0.0
2018-Apr-03 21:58N 29°21' W 094°45'0 0.0
2018-Apr-03 21:28N 29°21' W 094°45'0 0.0
2018-Apr-03 20:52N 29°21' W 094°45'0 0.0
2018-Apr-03 20:28N 29°21' W 094°45'0 0.0
2018-Apr-03 19:55N 29°21' W 094°45'0 0.0
2018-Apr-03 19:25N 29°21' W 094°45'0 0.0
2018-Apr-03 03:46N 29°21' W 094°45'0 0.0
2018-Apr-03 03:28N 29°21' W 094°45'0 0.1
2018-Apr-03 02:58N 29°21' W 094°45'0 0.0
2018-Apr-03 02:25N 29°21' W 094°45'0 0.0
2018-Apr-02 22:54N 29°21' W 094°45'0 0.3
2018-Apr-02 21:54N 29°21' W 094°45'0 0.0
2018-Apr-02 21:30N 29°21' W 094°45'0 0.0
2018-Apr-02 20:57N 29°21' W 094°45'0 0.1
2018-Apr-02 20:18N 29°21' W 094°45'0 0.1
2018-Apr-02 19:48N 29°21' W 094°45'0 0.0
2018-Apr-02 19:24N 29°21' W 094°45'0 0.0
2018-Apr-02 18:57N 29°21' W 094°45'0 0.0
2018-Apr-02 18:27N 29°21' W 094°45'0 0.0
2018-Apr-02 18:00N 29°21' W 094°45'0 0.0
2018-Apr-02 17:24N 29°21' W 094°45'0 0.0
2018-Apr-02 16:54N 29°21' W 094°45'0 0.0
2018-Apr-02 16:27N 29°21' W 094°45'0 0.1
2018-Apr-02 16:00N 29°21' W 094°45'2 1.3
2018-Apr-02 14:06N 29°21' W 094°42'1 8.6
2018-Apr-02 13:59N 29°20' W 094°41'5 7.8
2018-Apr-02 13:19N 29°18' W 094°36'3 8.0
2018-Apr-02 12:56N 29°16' W 094°33'4 8.1
2018-Apr-02 12:27N 29°13' W 094°30'4 8.3
2018-Apr-02 11:57N 29°11' W 094°26'4 8.4
2018-Apr-02 11:29N 29°09' W 094°22'5 8.4
2018-Apr-02 10:50N 29°06' W 094°17'2 7.1
2018-Apr-02 10:30N 29°05' W 094°15'4 6.6
2018-Apr-02 09:54N 29°02' W 094°11'  
2018-Mar-27 01:01N 25°29' W 080°05'3 7.9
2018-Mar-27 00:42N 25°32' W 080°05'2 7.8
2018-Mar-27 00:29N 25°33' W 080°04'4 7.9
2018-Mar-27 00:00N 25°37' W 080°04'4 8.1
2018-Mar-26 23:30N 25°41' W 080°03'4 8.2
2018-Mar-26 23:00N 25°45' W 080°03'4 8.4
2018-Mar-26 22:30N 25°49' W 080°03'5 9.3
2018-Mar-26 22:00N 25°54' W 080°03'  
Track history (hours):
 
Tides and Currents Weather Stations Pressure Air Temp Water Temp Dewpoint Dewpoint Depression Visibility Wind Speed Wind Dir Waves Ship Positions

Oliver Hazard Perry

Owner: Oliver Hazard Perry Rhode Island, Newport, RI. More information available from US FCC via Universal Licensing System and Coast Guard Vessel Documentation Center.

Last reported at 2018-Apr-05 22:00 UTC. Time now 2018-Apr-27 08:47 UTC.
Position N 29°19' W 094°47'.
Warning: this ship's position is 21 days out of date.

; draft 4 m.

Type: Sailing vessel. MMSI: 367658110.

Date/timePositionNaut miles runAvg speedWind from/ knotsBaromVisibWave heightAir tempDewpointWater temp
2018-Apr-05 22:00N 29°19' W 094°47'2 3.2
2018-Apr-05 21:29N 29°20' W 094°46'4 7.2
2018-Apr-05 20:58N 29°20' W 094°42'1 2.7
2018-Apr-05 20:28N 29°19' W 094°42'2 4.0
2018-Apr-05 19:58N 29°18' W 094°44'5 4.2
2018-Apr-05 18:51N 29°15' W 094°48'3 7.6
2018-Apr-05 18:29N 29°16' W 094°46'3 5.9
2018-Apr-05 17:58N 29°18' W 094°43'1 2.4
2018-Apr-05 17:29N 29°19' W 094°42'2 3.4
2018-Apr-05 16:59N 29°20' W 094°42'2 4.0
2018-Apr-05 16:29N 29°20' W 094°44'2 3.8
2018-Apr-05 15:59N 29°20' W 094°47'2 2.2
2018-Apr-05 15:15N 29°19' W 094°48'0 0.0
2018-Apr-05 15:00N 29°19' W 094°48'0 0.0
2018-Apr-05 14:30N 29°19' W 094°48'0 0.0
2018-Apr-05 13:57N 29°19' W 094°48'0 0.0
2018-Apr-05 13:27N 29°19' W 094°48'0 0.0
2018-Apr-05 13:01N 29°19' W 094°48'0 0.0
2018-Apr-05 12:27N 29°19' W 094°48'0 0.0
2018-Apr-05 11:48N 29°19' W 094°48'0 0.0
2018-Apr-05 11:21N 29°19' W 094°48'0 0.0
2018-Apr-05 10:57N 29°19' W 094°48'0 0.0
2018-Apr-05 10:30N 29°19' W 094°48'0 0.0
2018-Apr-05 10:00N 29°19' W 094°48'0 0.0
2018-Apr-05 09:30N 29°19' W 094°48'0 0.0
2018-Apr-05 09:01N 29°19' W 094°48'0 0.0
2018-Apr-05 08:30N 29°19' W 094°48'0 0.0
2018-Apr-05 08:00N 29°19' W 094°48'0 0.0
2018-Apr-05 07:21N 29°19' W 094°48'0 0.0
2018-Apr-05 06:54N 29°19' W 094°48'0 0.0
2018-Apr-05 06:30N 29°19' W 094°48'0 0.0
2018-Apr-05 05:54N 29°19' W 094°48'0 0.0
2018-Apr-05 05:28N 29°19' W 094°48'0 0.0
2018-Apr-05 04:57N 29°19' W 094°48'0 0.0
2018-Apr-05 03:54N 29°19' W 094°48'0 0.0
2018-Apr-05 03:21N 29°19' W 094°48'0 0.0
2018-Apr-05 02:09N 29°19' W 094°48'0 0.0
2018-Apr-05 01:48N 29°19' W 094°48'0 0.0
2018-Apr-05 01:30N 29°19' W 094°48'0 0.0
2018-Apr-05 01:00N 29°19' W 094°48'0 0.0
2018-Apr-05 00:21N 29°19' W 094°48'0 0.0
2018-Apr-05 00:00N 29°19' W 094°48'0 0.0
2018-Apr-04 23:30N 29°19' W 094°48'0 0.0
2018-Apr-04 22:57N 29°19' W 094°48'0 0.0
2018-Apr-04 22:30N 29°19' W 094°48'0 0.0
2018-Apr-04 22:00N 29°19' W 094°48'0 0.0
2018-Apr-04 21:30N 29°19' W 094°48'0 0.0
2018-Apr-04 20:57N 29°19' W 094°48'0 0.0
2018-Apr-04 20:30N 29°19' W 094°48'1 2.3
2018-Apr-04 20:00N 29°20' W 094°47'2 4.0
2018-Apr-04 19:24N 29°21' W 094°45'0 0.0
2018-Apr-04 18:47N 29°21' W 094°45'0 0.0
2018-Apr-04 18:23N 29°21' W 094°45'0 0.0
2018-Apr-04 17:53N 29°21' W 094°45'0 0.0
2018-Apr-04 17:20N 29°21' W 094°45'0 0.0
2018-Apr-04 16:47N 29°21' W 094°45'0 0.0
2018-Apr-04 16:29N 29°21' W 094°45'0 0.0
2018-Apr-04 15:56N 29°21' W 094°45'0 0.0
2018-Apr-04 15:29N 29°21' W 094°45'0 0.0
2018-Apr-04 14:56N 29°21' W 094°45'0 0.0
2018-Apr-04 14:26N 29°21' W 094°45'0 0.0
2018-Apr-04 13:59N 29°21' W 094°45'0 0.0
2018-Apr-04 13:29N 29°21' W 094°45'0 0.0
2018-Apr-04 12:59N 29°21' W 094°45'0 0.0
2018-Apr-04 12:26N 29°21' W 094°45'0 0.0
2018-Apr-04 11:44N 29°21' W 094°45'0 0.0
2018-Apr-04 11:29N 29°21' W 094°45'0 0.0
2018-Apr-04 10:59N 29°21' W 094°45'0 0.0
2018-Apr-04 10:29N 29°21' W 094°45'0 0.0
2018-Apr-04 09:59N 29°21' W 094°45'0 0.0
2018-Apr-04 09:23N 29°21' W 094°45'0 0.0
2018-Apr-04 08:59N 29°21' W 094°45'0 0.1
2018-Apr-04 08:17N 29°21' W 094°45'0 0.0
2018-Apr-04 07:59N 29°21' W 094°45'0 0.0
2018-Apr-04 07:23N 29°21' W 094°45'0 0.0
2018-Apr-04 06:04N 29°21' W 094°45'0 0.3
2018-Apr-04 05:58N 29°21' W 094°45'0 0.1
2018-Apr-04 05:28N 29°21' W 094°45'0 0.0
2018-Apr-04 04:46N 29°21' W 094°45'0 0.0
2018-Apr-04 04:28N 29°21' W 094°45'0 0.0
2018-Apr-04 03:55N 29°21' W 094°45'0 0.0
2018-Apr-04 03:28N 29°21' W 094°45'0 0.0
2018-Apr-04 02:58N 29°21' W 094°45'0 0.0
2018-Apr-04 02:19N 29°21' W 094°45'0 0.0
2018-Apr-04 01:49N 29°21' W 094°45'0 0.0
2018-Apr-04 01:25N 29°21' W 094°45'0 0.0
2018-Apr-04 00:58N 29°21' W 094°45'0 0.0
2018-Apr-04 00:19N 29°21' W 094°45'0 0.0
2018-Apr-03 23:58N 29°21' W 094°45'0 0.0
2018-Apr-03 23:28N 29°21' W 094°45'0 0.1
2018-Apr-03 22:58N 29°21' W 094°45'0 0.0
2018-Apr-03 22:19N 29°21' W 094°45'0 0.0
2018-Apr-03 21:58N 29°21' W 094°45'0 0.0
2018-Apr-03 21:28N 29°21' W 094°45'0 0.0
2018-Apr-03 20:52N 29°21' W 094°45'0 0.0
2018-Apr-03 20:28N 29°21' W 094°45'0 0.0
2018-Apr-03 19:55N 29°21' W 094°45'0 0.0
2018-Apr-03 19:25N 29°21' W 094°45'0 0.0
2018-Apr-03 03:46N 29°21' W 094°45'0 0.0
2018-Apr-03 03:28N 29°21' W 094°45'0 0.1
2018-Apr-03 02:58N 29°21' W 094°45'0 0.0
2018-Apr-03 02:25N 29°21' W 094°45'0 0.0
2018-Apr-02 22:54N 29°21' W 094°45'0 0.3
2018-Apr-02 21:54N 29°21' W 094°45'0 0.0
2018-Apr-02 21:30N 29°21' W 094°45'0 0.0
2018-Apr-02 20:57N 29°21' W 094°45'0 0.1
2018-Apr-02 20:18N 29°21' W 094°45'0 0.1
2018-Apr-02 19:48N 29°21' W 094°45'0 0.0
2018-Apr-02 19:24N 29°21' W 094°45'0 0.0
2018-Apr-02 18:57N 29°21' W 094°45'0 0.0
2018-Apr-02 18:27N 29°21' W 094°45'0 0.0
2018-Apr-02 18:00N 29°21' W 094°45'0 0.0
2018-Apr-02 17:24N 29°21' W 094°45'0 0.0
2018-Apr-02 16:54N 29°21' W 094°45'0 0.0
2018-Apr-02 16:27N 29°21' W 094°45'0 0.1
2018-Apr-02 16:00N 29°21' W 094°45'2 1.3
2018-Apr-02 14:06N 29°21' W 094°42'1 8.6
2018-Apr-02 13:59N 29°20' W 094°41'5 7.8
2018-Apr-02 13:19N 29°18' W 094°36'3 8.0
2018-Apr-02 12:56N 29°16' W 094°33'4 8.1
2018-Apr-02 12:27N 29°13' W 094°30'4 8.3
2018-Apr-02 11:57N 29°11' W 094°26'4 8.4
2018-Apr-02 11:29N 29°09' W 094°22'5 8.4
2018-Apr-02 10:50N 29°06' W 094°17'2 7.1
2018-Apr-02 10:30N 29°05' W 094°15'4 6.6
2018-Apr-02 09:54N 29°02' W 094°11'  
2018-Mar-27 01:01N 25°29' W 080°05'3 7.9
2018-Mar-27 00:42N 25°32' W 080°05'2 7.8
2018-Mar-27 00:29N 25°33' W 080°04'4 7.9
2018-Mar-27 00:00N 25°37' W 080°04'4 8.1
2018-Mar-26 23:30N 25°41' W 080°03'4 8.2
2018-Mar-26 23:00N 25°45' W 080°03'4 8.4
2018-Mar-26 22:30N 25°49' W 080°03'5 9.3
2018-Mar-26 22:00N 25°54' W 080°03'  

Dump ship's entire track history